Time;durP1;ratioP1;P1;durP2;ratioP2;P2;SDS_P1;SDS_P2;PMS_P1;PMS_P2;Temp;Humidity;BMP_temperature;BMP_pressure;BME280_temperature;BME280_humidity;BME280_pressure;Samples;Min_cycle;Max_cycle;Signal;HPM_P1;HPM_P2
2022/07/22 00:02:23;;;;;;;8.40;6.43;;;21.90;99.90;;;;;;5035848;28;20480;-47
2022/07/22 00:04:50;;;;;;;7.30;5.93;;;21.90;99.90;;;;;;5035659;28;20472;-46
2022/07/22 00:07:17;;;;;;;6.70;5.87;;;22.00;99.90;;;;;;5035873;28;20484;-44
2022/07/22 00:09:44;;;;;;;8.33;6.27;;;22.00;99.90;;;;;;5035981;28;20496;-39
2022/07/22 00:12:13;;;;;;;7.20;6.00;;;21.90;99.90;;;;;;5035752;28;20532;-48
2022/07/22 00:14:40;;;;;;;7.20;6.50;;;22.00;99.90;;;;;;5035967;28;20433;-43
2022/07/22 00:17:08;;;;;;;6.00;5.43;;;22.00;99.90;;;;;;5035778;28;20525;-41
2022/07/22 00:19:37;;;;;;;5.60;5.00;;;22.00;99.90;;;;;;5035897;28;20500;-41
2022/07/22 00:22:04;;;;;;;7.47;6.10;;;22.00;99.90;;;;;;5035590;28;20445;-47
2022/07/22 00:24:31;;;;;;;9.50;6.77;;;22.10;99.90;;;;;;5035660;28;20496;-42
2022/07/22 00:26:57;;;;;;;6.03;5.43;;;22.10;99.90;;;;;;5036314;28;20433;-36
2022/07/22 00:29:24;;;;;;;6.20;5.60;;;22.20;99.90;;;;;;5035834;28;20463;-47
2022/07/22 00:31:51;;;;;;;7.10;5.23;;;22.20;99.90;;;;;;5035987;28;20441;-44
2022/07/22 00:34:19;;;;;;;6.30;5.60;;;22.10;99.90;;;;;;5036107;28;20461;-52
2022/07/22 00:36:46;;;;;;;5.80;5.20;;;22.10;99.90;;;;;;5035611;28;20452;-48
2022/07/22 00:39:15;;;;;;;6.07;5.40;;;22.10;99.90;;;;;;5035548;28;20429;-50
2022/07/22 00:41:41;;;;;;;5.87;5.27;;;22.10;99.90;;;;;;5035561;28;20517;-45
2022/07/22 00:44:10;;;;;;;7.47;6.17;;;22.10;99.90;;;;;;5035413;28;20422;-42
2022/07/22 00:46:39;;;;;;;8.97;6.00;;;22.10;99.90;;;;;;5034505;28;20449;-48
2022/07/22 00:49:09;;;;;;;6.13;5.53;;;22.10;99.90;;;;;;5034527;28;20480;-45
2022/07/22 00:51:39;;;;;;;6.33;5.73;;;22.10;99.90;;;;;;5034953;28;20453;-40
2022/07/22 00:54:06;;;;;;;5.30;4.80;;;22.10;99.90;;;;;;5031808;28;20483;-55
2022/07/22 00:56:33;;;;;;;7.63;6.73;;;22.10;99.90;;;;;;5018557;28;20441;-48
2022/07/22 00:59:05;;;;;;;6.10;5.50;;;22.00;99.90;;;;;;5035264;28;20427;-42
2022/07/22 01:01:32;;;;;;;6.13;5.40;;;22.10;99.90;;;;;;5035473;28;20449;-46
2022/07/22 01:03:59;;;;;;;6.67;5.90;;;22.00;99.90;;;;;;5035193;28;20429;-42
2022/07/22 01:06:26;;;;;;;7.00;6.30;;;22.00;99.90;;;;;;5035447;28;20513;-51
2022/07/22 01:08:55;;;;;;;6.83;6.17;;;22.00;99.90;;;;;;5035524;28;20453;-46
2022/07/22 01:11:22;;;;;;;6.37;5.77;;;21.90;99.90;;;;;;5035083;28;20453;-44
2022/07/22 01:13:50;;;;;;;7.20;6.50;;;21.90;99.90;;;;;;5033857;28;20468;-55
2022/07/22 01:16:19;;;;;;;6.43;5.73;;;21.90;99.90;;;;;;5035785;28;20433;-43
2022/07/22 01:18:46;;;;;;;6.17;5.63;;;21.90;99.90;;;;;;5034598;28;21124;-45
2022/07/22 01:21:16;;;;;;;7.80;6.40;;;21.90;99.90;;;;;;5034411;28;20488;-44
2022/07/22 01:23:43;;;;;;;7.07;5.60;;;21.90;99.90;;;;;;5035959;28;20469;-47
2022/07/22 01:26:10;;;;;;;6.90;5.80;;;21.90;99.90;;;;;;5034522;28;20461;-45
2022/07/22 01:28:37;;;;;;;6.27;5.30;;;21.80;99.90;;;;;;5035454;28;20431;-48
2022/07/22 01:31:04;;;;;;;7.70;6.90;;;21.80;99.90;;;;;;5017152;28;20465;-50
2022/07/22 01:33:32;;;;;;;6.40;4.97;;;21.80;99.90;;;;;;5033675;28;20481;-40
2022/07/22 01:35:59;;;;;;;7.67;5.07;;;21.70;99.90;;;;;;5037708;28;20449;-48
2022/07/22 01:38:36;;;;;;;6.20;5.60;;;21.70;99.90;;;;;;5039199;28;20532;-40
2022/07/22 01:41:03;;;;;;;5.43;4.93;;;21.60;99.90;;;;;;5039005;28;20516;-45
2022/07/22 01:43:30;;;;;;;7.40;4.87;;;21.60;99.90;;;;;;5038562;28;20921;-51
2022/07/22 01:45:57;;;;;;;7.80;5.80;;;21.60;99.90;;;;;;5038914;28;20496;-52
2022/07/22 01:48:25;;;;;;;5.43;4.90;;;21.50;99.90;;;;;;5023435;28;20448;-52
2022/07/22 01:50:53;;;;;;;5.07;4.57;;;21.50;99.90;;;;;;5038475;28;20475;-46
2022/07/22 01:53:20;;;;;;;4.80;4.30;;;21.50;99.90;;;;;;5038920;28;20452;-55
2022/07/22 01:55:50;;;;;;;6.13;5.63;;;21.50;99.90;;;;;;5039003;28;20472;-45
2022/07/22 01:58:17;;;;;;;5.40;4.90;;;21.40;99.90;;;;;;5038749;28;20445;-49
2022/07/22 02:00:44;;;;;;;5.70;4.37;;;21.40;99.90;;;;;;5035751;28;20571;-54
2022/07/22 02:03:11;;;;;;;4.70;4.30;;;21.40;99.90;;;;;;5024719;28;20479;-47
2022/07/22 02:05:38;;;;;;;4.70;4.30;;;21.30;99.90;;;;;;5038510;28;20445;-50
2022/07/22 02:08:07;;;;;;;7.27;5.10;;;21.30;99.90;;;;;;5038428;28;20587;-43
2022/07/22 02:10:36;;;;;;;5.00;4.27;;;21.20;99.90;;;;;;5039084;28;20418;-51
2022/07/22 02:13:05;;;;;;;6.13;5.40;;;21.20;99.90;;;;;;5039008;28;20461;-47
2022/07/22 02:15:32;;;;;;;5.83;4.50;;;21.20;99.90;;;;;;5038648;28;20481;-49
2022/07/22 02:17:59;;;;;;;4.90;4.40;;;21.20;99.90;;;;;;5038701;28;20445;-42
2022/07/22 02:20:26;;;;;;;5.40;4.67;;;21.20;99.90;;;;;;5037910;28;20484;-50
2022/07/22 02:22:53;;;;;;;5.77;4.40;;;21.10;99.90;;;;;;5025782;28;20448;-54
2022/07/22 02:25:20;;;;;;;6.30;4.40;;;21.20;99.90;;;;;;5035808;28;20439;-47
2022/07/22 02:27:46;;;;;;;7.10;4.97;;;21.20;99.90;;;;;;5038045;28;20493;-49
2022/07/22 02:30:15;;;;;;;6.03;4.53;;;21.20;99.90;;;;;;5038360;28;20461;-52
2022/07/22 02:32:41;;;;;;;6.03;5.23;;;21.20;99.90;;;;;;5037750;28;20472;-47
2022/07/22 02:35:09;;;;;;;8.03;5.33;;;21.20;99.90;;;;;;5037497;28;20441;-46
2022/07/22 02:37:37;;;;;;;6.10;4.87;;;21.20;99.90;;;;;;5037772;28;20463;-51
2022/07/22 02:40:05;;;;;;;5.63;5.07;;;21.10;99.90;;;;;;5037947;28;20469;-43
2022/07/22 02:42:32;;;;;;;7.40;5.50;;;21.10;99.90;;;;;;5037436;28;20429;-48
2022/07/22 02:44:59;;;;;;;7.70;5.97;;;21.00;99.90;;;;;;5036761;28;20521;-49
2022/07/22 02:47:27;;;;;;;5.30;4.60;;;20.90;99.90;;;;;;5037054;28;20476;-50
2022/07/22 02:49:54;;;;;;;5.97;4.43;;;20.90;99.90;;;;;;5037703;28;20429;-46
2022/07/22 02:52:23;;;;;;;6.73;6.07;;;20.80;99.90;;;;;;5037674;28;20425;-49
2022/07/22 02:54:50;;;;;;;6.80;5.60;;;20.80;99.90;;;;;;5037923;28;20489;-49
2022/07/22 02:57:22;;;;;;;7.80;5.10;;;20.70;99.90;;;;;;5036975;28;20503;-49
2022/07/22 02:59:49;;;;;;;7.73;5.97;;;20.60;99.90;;;;;;5037461;28;20481;-46
2022/07/22 03:02:17;;;;;;;7.37;6.13;;;20.60;99.90;;;;;;5037152;28;20567;-52
2022/07/22 03:04:45;;;;;;;6.60;5.40;;;20.60;99.90;;;;;;5037744;28;20465;-47
2022/07/22 03:07:14;;;;;;;7.40;5.80;;;20.60;99.90;;;;;;5036521;28;20476;-47
2022/07/22 03:09:41;;;;;;;5.47;4.97;;;20.60;99.90;;;;;;5036007;28;20460;-48
2022/07/22 03:12:08;;;;;;;7.43;5.73;;;20.70;99.90;;;;;;5036765;28;20513;-42
2022/07/22 03:14:35;;;;;;;5.80;5.20;;;20.60;99.90;;;;;;5037329;28;20441;-48
2022/07/22 03:17:01;;;;;;;8.23;6.73;;;20.70;99.90;;;;;;5036977;28;20520;-53
2022/07/22 03:19:31;;;;;;;7.77;5.63;;;20.70;99.90;;;;;;5037500;28;20465;-39
2022/07/22 03:21:59;;;;;;;7.10;5.83;;;20.60;99.90;;;;;;5037002;28;20552;-51
2022/07/22 03:24:29;;;;;;;7.00;6.20;;;20.60;99.90;;;;;;5037043;28;20472;-45
2022/07/22 03:26:55;;;;;;;7.30;6.43;;;20.60;99.90;;;;;;5036639;28;20497;-42
2022/07/22 03:29:22;;;;;;;11.63;7.13;;;20.60;99.90;;;;;;5036757;28;20588;-46
2022/07/22 03:31:49;;;;;;;7.03;5.97;;;20.70;99.90;;;;;;5037101;28;20452;-55
2022/07/22 03:34:15;;;;;;;7.40;6.03;;;20.60;99.90;;;;;;5036656;28;20469;-49
2022/07/22 03:36:42;;;;;;;7.70;6.60;;;20.60;99.90;;;;;;5037075;28;20468;-44
2022/07/22 03:39:10;;;;;;;7.57;6.50;;;20.50;99.90;;;;;;5036747;28;20528;-47
2022/07/22 03:41:39;;;;;;;7.70;7.00;;;20.50;99.90;;;;;;5036954;28;20496;-49
2022/07/22 03:44:08;;;;;;;8.20;6.97;;;20.40;99.90;;;;;;5036905;28;20433;-48
2022/07/22 03:46:36;;;;;;;8.73;6.93;;;20.40;99.90;;;;;;5037127;28;20455;-50
2022/07/22 03:49:03;;;;;;;12.10;7.63;;;20.40;99.90;;;;;;5037184;28;20433;-50
2022/07/22 03:51:30;;;;;;;8.67;7.53;;;20.40;99.90;;;;;;5036325;28;20443;-47
2022/07/22 03:53:57;;;;;;;8.60;7.13;;;20.40;99.90;;;;;;5036118;28;20457;-44
2022/07/22 03:56:25;;;;;;;7.87;6.80;;;20.40;99.90;;;;;;5031418;28;20902;-54
2022/07/22 03:58:51;;;;;;;9.13;7.60;;;20.40;99.90;;;;;;5025451;28;20473;-50
2022/07/22 04:01:21;;;;;;;8.70;7.47;;;20.50;99.90;;;;;;5036242;28;20495;-52
2022/07/22 04:03:49;;;;;;;9.50;7.27;;;20.50;99.90;;;;;;5036971;28;20455;-54
2022/07/22 04:06:16;;;;;;;8.13;6.83;;;20.50;99.90;;;;;;5037096;28;20464;-45
2022/07/22 04:08:42;;;;;;;10.73;8.67;;;20.50;99.90;;;;;;5036905;28;20516;-46
2022/07/22 04:11:09;;;;;;;9.40;7.43;;;20.60;99.90;;;;;;5035764;28;20492;-51
2022/07/22 04:13:37;;;;;;;8.73;7.50;;;20.60;99.90;;;;;;5035933;28;20497;-45
2022/07/22 04:16:05;;;;;;;9.73;6.93;;;20.70;99.90;;;;;;5035185;28;20441;-49
2022/07/22 04:18:32;;;;;;;9.33;7.40;;;20.70;99.90;;;;;;5036266;28;20470;-46
2022/07/22 04:20:59;;;;;;;12.30;8.47;;;20.70;99.90;;;;;;5036208;28;20529;-45
2022/07/22 04:23:26;;;;;;;11.00;8.50;;;20.70;99.90;;;;;;5036414;28;20467;-45
2022/07/22 04:25:55;;;;;;;8.73;7.10;;;20.70;99.90;;;;;;5036397;28;20883;-42
2022/07/22 04:28:22;;;;;;;7.33;6.53;;;20.70;99.90;;;;;;5035500;28;20445;-50
2022/07/22 04:30:50;;;;;;;9.70;8.10;;;20.80;99.90;;;;;;5035486;28;20532;-46
2022/07/22 04:33:19;;;;;;;11.43;6.80;;;20.70;99.90;;;;;;5035861;28;20445;-52
2022/07/22 04:35:46;;;;;;;9.07;7.80;;;20.80;99.90;;;;;;5035753;28;20472;-48
2022/07/22 04:38:13;;;;;;;8.37;7.10;;;20.80;99.90;;;;;;5035157;28;20429;-53
2022/07/22 04:40:39;;;;;;;11.47;7.60;;;20.80;99.90;;;;;;5034860;28;20469;-43
2022/07/22 04:43:06;;;;;;;10.47;8.57;;;20.90;99.90;;;;;;5035290;28;20580;-51
2022/07/22 04:45:33;;;;;;;8.67;7.83;;;20.90;99.90;;;;;;5028814;28;20452;-47
2022/07/22 04:48:01;;;;;;;10.27;7.90;;;20.90;99.90;;;;;;5027146;28;20537;-50
2022/07/22 04:50:28;;;;;;;8.87;7.97;;;21.00;99.90;;;;;;5034984;28;20446;-42
2022/07/22 04:52:57;;;;;;;11.00;8.50;;;21.00;99.90;;;;;;5035821;28;20437;-44
2022/07/22 04:55:24;;;;;;;8.73;7.80;;;20.90;99.90;;;;;;5034801;28;20453;-53
2022/07/22 04:57:51;;;;;;;8.97;7.70;;;20.90;99.90;;;;;;5019457;28;20455;-49
2022/07/22 05:00:18;;;;;;;11.67;9.53;;;20.90;99.90;;;;;;5035889;28;20477;-50
2022/07/22 05:02:45;;;;;;;10.70;8.63;;;20.90;99.90;;;;;;5036085;28;20590;-38
2022/07/22 05:05:13;;;;;;;12.47;8.63;;;21.00;99.90;;;;;;5036015;28;20508;-46
2022/07/22 05:07:40;;;;;;;10.40;7.80;;;20.90;99.90;;;;;;5035743;28;20467;-48
2022/07/22 05:10:07;;;;;;;10.97;9.37;;;20.90;99.90;;;;;;5035009;28;20448;-50
2022/07/22 05:12:34;;;;;;;11.43;8.40;;;20.90;99.90;;;;;;5035335;28;20479;-49
2022/07/22 05:15:01;;;;;;;11.23;9.23;;;20.90;99.90;;;;;;5017862;28;20429;-54
2022/07/22 05:17:28;;;;;;;8.47;7.40;;;20.90;99.90;;;;;;5035616;28;20472;-45
2022/07/22 05:19:57;;;;;;;10.87;8.80;;;20.90;99.90;;;;;;5034948;28;20455;-47
2022/07/22 05:22:25;;;;;;;10.63;8.73;;;21.00;99.90;;;;;;5034882;28;20572;-42
2022/07/22 05:24:52;;;;;;;10.93;8.23;;;21.00;99.90;;;;;;5034846;28;20555;-50
2022/07/22 05:27:19;;;;;;;10.93;9.43;;;20.90;99.90;;;;;;5035224;28;20438;-47
2022/07/22 05:29:45;;;;;;;10.47;8.73;;;21.00;99.90;;;;;;5035301;28;20508;-45
2022/07/22 05:32:12;;;;;;;8.80;7.90;;;21.00;99.90;;;;;;5034902;28;20465;-47
2022/07/22 05:34:39;;;;;;;11.17;8.70;;;21.00;99.90;;;;;;5033809;28;20533;-53
2022/07/22 05:37:06;;;;;;;10.83;9.50;;;21.00;99.90;;;;;;5032772;28;20461;-49
2022/07/22 05:39:34;;;;;;;10.17;8.43;;;21.10;99.90;;;;;;5033356;28;20449;-46
2022/07/22 05:42:01;;;;;;;11.60;9.60;;;21.10;99.90;;;;;;5033351;28;20477;-44
2022/07/22 05:44:28;;;;;;;11.37;8.97;;;21.10;99.90;;;;;;5033169;28;20469;-42
2022/07/22 05:46:54;;;;;;;8.30;7.30;;;21.20;99.90;;;;;;5033376;28;20456;-42
2022/07/22 05:49:21;;;;;;;10.50;7.87;;;21.20;99.90;;;;;;5033073;28;20480;-45
2022/07/22 05:51:48;;;;;;;14.23;8.20;;;21.20;99.90;;;;;;5033477;28;20421;-44
2022/07/22 05:54:16;;;;;;;10.33;9.23;;;21.30;99.90;;;;;;5033324;28;20484;-43
2022/07/22 05:56:44;;;;;;;15.53;8.70;;;21.30;99.90;;;;;;5033375;28;20499;-46
2022/07/22 05:59:11;;;;;;;11.33;8.87;;;21.40;99.90;;;;;;5033500;28;20509;-44
2022/07/22 06:01:38;;;;;;;9.97;8.60;;;21.40;99.90;;;;;;5032603;28;20556;-46
2022/07/22 06:04:05;;;;;;;9.80;8.80;;;21.50;99.90;;;;;;5051639;28;20448;-37
2022/07/22 06:06:32;;;;;;;9.60;8.70;;;21.50;99.90;;;;;;5052986;28;20523;-47
2022/07/22 06:08:58;;;;;;;10.40;9.30;;;21.50;99.90;;;;;;5050709;28;20501;-44
2022/07/22 06:11:25;;;;;;;9.73;8.73;;;21.60;99.90;;;;;;5042556;28;20446;-48
2022/07/22 06:13:54;;;;;;;11.60;9.87;;;21.60;99.90;;;;;;5030447;28;20520;-51
2022/07/22 06:16:20;;;;;;;9.47;7.80;;;21.40;99.90;;;;;;5039279;28;20486;-45
2022/07/22 06:18:49;;;;;;;9.23;8.30;;;21.40;99.90;;;;;;5050552;28;20451;-47
2022/07/22 06:21:16;;;;;;;11.83;9.17;;;21.40;99.90;;;;;;5049203;28;20450;-50
2022/07/22 06:23:42;;;;;;;10.40;8.50;;;21.50;99.90;;;;;;5050552;28;20855;-47
2022/07/22 06:26:09;;;;;;;11.17;9.37;;;21.60;99.90;;;;;;5052163;28;20456;-48
2022/07/22 06:28:36;;;;;;;9.73;8.17;;;21.70;99.90;;;;;;5054996;28;20440;-45
2022/07/22 06:31:07;;;;;;;9.40;8.50;;;21.90;99.90;;;;;;5052306;28;20468;-45
2022/07/22 06:33:37;;;;;;;9.90;8.90;;;22.00;99.90;;;;;;5052063;28;20425;-47
2022/07/22 06:36:04;;;;;;;10.37;8.03;;;22.00;99.90;;;;;;5051925;28;20448;-48
2022/07/22 06:38:31;;;;;;;9.90;9.00;;;22.00;99.90;;;;;;5046742;28;20547;-49
2022/07/22 06:40:58;;;;;;;12.23;8.47;;;22.20;99.90;;;;;;5053188;28;20444;-51
2022/07/22 06:43:25;;;;;;;8.03;7.20;;;22.30;99.90;;;;;;5048065;28;20535;-44
2022/07/22 06:45:52;;;;;;;11.23;8.37;;;22.40;99.90;;;;;;5048902;28;20448;-49
2022/07/22 06:48:23;;;;;;;8.67;7.80;;;22.40;99.90;;;;;;5051985;28;20516;-46
2022/07/22 06:50:49;;;;;;;9.37;6.93;;;22.50;99.90;;;;;;5050501;28;20425;-45
2022/07/22 06:53:16;;;;;;;8.10;6.93;;;22.60;99.90;;;;;;5048674;28;20437;-51
2022/07/22 06:55:43;;;;;;;8.60;7.80;;;22.80;99.90;;;;;;5041729;28;20472;-49
2022/07/22 06:58:10;;;;;;;8.43;7.57;;;22.90;99.90;;;;;;5048181;28;20464;-46
2022/07/22 07:00:37;;;;;;;10.93;8.93;;;23.00;99.90;;;;;;5045470;28;20472;-50
2022/07/22 07:03:04;;;;;;;9.40;8.03;;;23.00;99.90;;;;;;5046764;28;20460;-50
2022/07/22 07:05:32;;;;;;;9.73;8.73;;;23.10;99.90;;;;;;5047167;28;20649;-49
2022/07/22 07:07:59;;;;;;;9.33;7.20;;;23.10;99.90;;;;;;5047564;28;20878;-49
2022/07/22 07:10:26;;;;;;;10.40;7.40;;;23.20;99.90;;;;;;5047903;28;20531;-49
2022/07/22 07:12:56;;;;;;;10.93;9.80;;;23.40;99.90;;;;;;5046774;28;20487;-52
2022/07/22 07:15:23;;;;;;;8.67;7.77;;;23.50;99.90;;;;;;5045045;28;20448;-42
2022/07/22 07:17:50;;;;;;;9.10;7.80;;;23.60;99.90;;;;;;5048841;28;20458;-48
2022/07/22 07:20:22;;;;;;;8.80;7.30;;;23.60;99.90;;;;;;5047329;28;20472;-47
2022/07/22 07:22:50;;;;;;;11.70;6.93;;;23.50;99.90;;;;;;5050916;28;20468;-50
2022/07/22 07:25:17;;;;;;;18.77;7.50;;;23.50;99.90;;;;;;5054643;28;20515;-49
2022/07/22 07:27:44;;;;;;;7.20;6.50;;;23.70;99.90;;;;;;5043427;28;20448;-49
2022/07/22 07:30:12;;;;;;;7.23;6.40;;;24.00;99.90;;;;;;5021867;28;20547;-50
2022/07/22 07:32:39;;;;;;;12.83;7.00;;;24.80;99.90;;;;;;5033927;28;20466;-46
2022/07/22 07:35:07;;;;;;;7.13;5.87;;;26.00;99.90;;;;;;5042729;28;20459;-46
2022/07/22 07:37:34;;;;;;;6.80;6.20;;;27.20;99.90;;;;;;5046375;28;20492;-50
2022/07/22 07:40:03;;;;;;;6.90;6.00;;;28.20;99.90;;;;;;5035070;28;20543;-49
2022/07/22 07:42:30;;;;;;;7.10;6.50;;;28.50;99.90;;;;;;5042830;28;20484;-51
2022/07/22 07:44:57;;;;;;;7.70;5.70;;;28.50;99.90;;;;;;5044195;28;20432;-48
2022/07/22 07:47:24;;;;;;;6.03;5.43;;;28.90;99.90;;;;;;5055833;28;20451;-42
2022/07/22 07:49:51;;;;;;;6.20;5.17;;;29.40;99.90;;;;;;5055449;28;20468;-44
2022/07/22 07:52:18;;;;;;;5.10;4.70;;;30.10;99.90;;;;;;5055162;28;20484;-43
2022/07/22 07:54:46;;;;;;;6.23;5.63;;;30.80;99.90;;;;;;5055353;28;20491;-51
2022/07/22 07:57:14;;;;;;;6.67;6.07;;;31.30;99.90;;;;;;5055608;28;20432;-41
2022/07/22 07:59:41;;;;;;;6.27;5.17;;;31.50;99.90;;;;;;5055401;28;20496;-49
2022/07/22 08:02:08;;;;;;;5.40;4.90;;;31.90;99.90;;;;;;5055296;28;20556;-49
2022/07/22 08:04:35;;;;;;;5.90;5.40;;;32.40;98.50;;;;;;5055853;28;20447;-44
2022/07/22 08:07:02;;;;;;;5.20;4.77;;;32.40;97.60;;;;;;5055279;28;20679;-49
2022/07/22 08:09:29;;;;;;;5.23;4.53;;;32.20;96.60;;;;;;5055346;28;20439;-45
2022/07/22 08:11:56;;;;;;;5.87;5.23;;;31.80;96.10;;;;;;5055698;28;20458;-51
2022/07/22 08:14:26;;;;;;;7.83;5.37;;;30.90;96.70;;;;;;5055678;28;20806;-50
2022/07/22 08:16:54;;;;;;;6.03;5.53;;;29.80;99.00;;;;;;5055229;28;20512;-57
2022/07/22 08:19:21;;;;;;;6.23;5.27;;;29.60;99.90;;;;;;5054413;28;20467;-49
2022/07/22 08:21:48;;;;;;;5.67;5.17;;;30.20;99.90;;;;;;5054980;28;20439;-48
2022/07/22 08:24:17;;;;;;;4.13;3.70;;;30.50;99.70;;;;;;5054551;28;20480;-48
2022/07/22 08:26:43;;;;;;;6.00;5.40;;;30.50;99.00;;;;;;5055173;28;20464;-48
2022/07/22 08:29:10;;;;;;;5.87;5.30;;;30.40;98.80;;;;;;5055261;28;20452;-48
2022/07/22 08:31:39;;;;;;;5.30;4.33;;;29.60;99.30;;;;;;5054984;28;20480;-48
2022/07/22 08:34:06;;;;;;;6.13;5.53;;;29.00;99.90;;;;;;5054416;28;20467;-48
2022/07/22 08:36:33;;;;;;;6.67;6.17;;;28.60;99.90;;;;;;5054303;28;20499;-47
2022/07/22 08:39:00;;;;;;;6.50;5.07;;;28.00;99.90;;;;;;5054462;28;20432;-50
2022/07/22 08:41:27;;;;;;;5.10;4.60;;;27.50;99.90;;;;;;5054396;28;20495;-47
2022/07/22 08:43:57;;;;;;;5.07;4.67;;;27.60;99.90;;;;;;5053454;28;20478;-51
2022/07/22 08:46:24;;;;;;;5.67;4.40;;;27.70;99.90;;;;;;5054774;28;20476;-42
2022/07/22 08:48:52;;;;;;;4.97;4.53;;;27.80;99.90;;;;;;5054007;28;20452;-46
2022/07/22 08:51:23;;;;;;;6.80;5.23;;;27.50;99.90;;;;;;5054445;28;20456;-46
2022/07/22 08:53:49;;;;;;;5.20;4.70;;;27.20;99.90;;;;;;5054555;28;20459;-50
2022/07/22 08:56:16;;;;;;;5.27;4.87;;;26.70;99.90;;;;;;5054073;28;20432;-47
2022/07/22 08:58:43;;;;;;;4.80;4.40;;;26.20;99.90;;;;;;5054093;28;20444;-47
2022/07/22 09:01:15;;;;;;;5.30;4.80;;;25.80;99.90;;;;;;5053883;28;20448;-38
2022/07/22 09:03:49;;;;;;;5.30;4.80;;;25.40;99.90;;;;;;5054056;28;20479;-46
2022/07/22 09:06:18;;;;;;;5.80;4.50;;;24.90;99.90;;;;;;5054121;28;20845;-46
2022/07/22 09:08:53;;;;;;;4.63;4.23;;;24.60;99.90;;;;;;5054027;28;20436;-51
2022/07/22 09:11:21;;;;;;;5.73;4.80;;;24.30;99.90;;;;;;5053900;28;20471;-48
2022/07/22 09:13:49;;;;;;;6.07;5.20;;;24.00;99.90;;;;;;5054161;28;20452;-54
2022/07/22 09:16:16;;;;;;;5.53;5.03;;;23.90;99.90;;;;;;5054592;28;20463;-43
2022/07/22 09:18:48;;;;;;;6.10;5.60;;;23.80;99.90;;;;;;5053160;28;20440;-44
2022/07/22 09:21:17;;;;;;;6.40;5.80;;;23.80;99.90;;;;;;5054050;28;20936;-43
2022/07/22 09:23:45;;;;;;;4.77;4.43;;;23.80;99.90;;;;;;5053777;28;20487;-39
2022/07/22 09:26:31;;;;;;;7.00;5.27;;;23.80;99.90;;;;;;5054334;28;20424;-52
2022/07/22 09:28:59;;;;;;;4.77;4.37;;;23.90;99.90;;;;;;5054009;28;20503;-41
2022/07/22 09:31:30;;;;;;;5.67;5.17;;;24.30;99.90;;;;;;5054224;28;20463;-53
2022/07/22 09:33:57;;;;;;;5.63;5.00;;;24.60;99.90;;;;;;5054108;28;20460;-47
2022/07/22 09:36:26;;;;;;;5.23;4.57;;;24.70;99.90;;;;;;5053730;28;20512;-43
2022/07/22 09:38:53;;;;;;;5.60;5.10;;;24.90;99.90;;;;;;5053860;28;20447;-43
2022/07/22 09:41:20;;;;;;;7.33;4.30;;;24.80;99.90;;;;;;5053968;28;20452;-51
2022/07/22 09:43:47;;;;;;;5.30;4.73;;;24.60;99.90;;;;;;5053611;28;21348;-47
2022/07/22 09:46:14;;;;;;;5.30;4.30;;;24.30;99.90;;;;;;5053121;28;20527;-51
2022/07/22 09:48:43;;;;;;;4.07;3.67;;;24.00;99.90;;;;;;5053507;28;20477;-52
2022/07/22 09:51:10;;;;;;;4.90;4.50;;;23.80;99.90;;;;;;5053404;28;20459;-43
2022/07/22 09:53:38;;;;;;;4.10;3.70;;;23.60;99.90;;;;;;5053417;28;20460;-41
2022/07/22 09:56:06;;;;;;;4.30;4.00;;;23.40;99.90;;;;;;5056361;28;20464;-45
2022/07/22 09:58:33;;;;;;;3.43;2.83;;;23.50;99.90;;;;;;5057590;28;20443;-49
2022/07/22 10:01:03;;;;;;;3.47;3.17;;;23.70;99.90;;;;;;5056860;28;20472;-50
2022/07/22 10:03:32;;;;;;;2.97;2.70;;;23.70;99.90;;;;;;5056749;28;20472;-41
2022/07/22 10:06:00;;;;;;;2.60;2.40;;;23.80;99.90;;;;;;5057342;28;20439;-43
2022/07/22 10:08:32;;;;;;;4.00;2.90;;;23.90;99.90;;;;;;5057112;28;20504;-46
2022/07/22 10:11:03;;;;;;;2.43;2.20;;;24.00;99.90;;;;;;5057139;28;20436;-45
2022/07/22 10:13:31;;;;;;;2.50;2.30;;;24.00;99.90;;;;;;5056913;28;20416;-48
2022/07/22 10:15:59;;;;;;;2.63;2.43;;;24.00;99.90;;;;;;5056617;28;20486;-45
2022/07/22 10:18:28;;;;;;;2.67;2.47;;;24.00;99.90;;;;;;5057254;28;20503;-45
2022/07/22 10:21:03;;;;;;;2.93;2.73;;;24.10;99.90;;;;;;5057337;28;20459;-48
2022/07/22 10:23:30;;;;;;;3.17;2.90;;;24.20;99.90;;;;;;5056819;28;20479;-47
2022/07/22 10:26:03;;;;;;;2.93;2.57;;;24.30;99.90;;;;;;5056845;28;20412;-51
2022/07/22 10:28:31;;;;;;;2.90;2.70;;;24.40;99.90;;;;;;5056822;28;20524;-42
2022/07/22 10:31:21;;;;;;;3.50;3.20;;;24.80;99.90;;;;;;5056958;28;20454;-46
2022/07/22 10:33:51;;;;;;;3.20;3.00;;;25.30;99.90;;;;;;5056387;28;20452;-49
2022/07/22 10:36:32;;;;;;;4.17;3.77;;;25.70;99.90;;;;;;5057237;28;20511;-46
2022/07/22 10:39:04;;;;;;;3.57;3.27;;;25.90;99.90;;;;;;5056679;28;20955;-49
2022/07/22 10:41:35;;;;;;;3.70;3.40;;;26.20;99.90;;;;;;5057023;28;20444;-50
2022/07/22 10:44:02;;;;;;;4.17;3.63;;;26.50;99.90;;;;;;5057035;28;20472;-57
2022/07/22 10:46:48;;;;;;;3.77;3.47;;;26.70;99.90;;;;;;5057337;28;20475;-51
2022/07/22 10:49:17;;;;;;;4.43;4.10;;;26.90;99.90;;;;;;5052361;28;20421;-49
2022/07/22 10:52:09;;;;;;;3.10;2.90;;;27.30;99.90;;;;;;5058055;28;20458;-53
2022/07/22 10:55:16;;;;;;;3.70;3.40;;;27.80;99.90;;;;;;5057492;28;20472;-47
2022/07/22 10:57:44;;;;;;;3.40;3.10;;;28.10;99.90;;;;;;5056973;28;20500;-42
2022/07/22 11:00:11;;;;;;;5.23;3.40;;;27.70;99.90;;;;;;5056374;28;20446;-46
2022/07/22 11:02:39;;;;;;;4.50;3.47;;;27.70;99.90;;;;;;5055992;28;20492;-44
2022/07/22 11:05:08;;;;;;;3.27;2.97;;;28.00;99.90;;;;;;5056699;28;20451;-47
2022/07/22 11:07:35;;;;;;;4.17;3.87;;;28.30;99.90;;;;;;5055463;28;20479;-52
2022/07/22 11:10:13;;;;;;;3.37;3.10;;;28.30;99.90;;;;;;5056801;28;20432;-45
2022/07/22 11:12:40;;;;;;;3.67;3.37;;;28.20;99.90;;;;;;5056382;28;20446;-45
2022/07/22 11:15:09;;;;;;;3.60;3.13;;;28.10;99.90;;;;;;5056854;28;20468;-47
2022/07/22 11:17:37;;;;;;;3.50;3.20;;;28.10;99.90;;;;;;5056987;28;20437;-49
2022/07/22 11:20:05;;;;;;;4.70;4.00;;;27.80;99.90;;;;;;5056114;28;20468;-48
2022/07/22 11:22:33;;;;;;;4.57;3.90;;;27.40;99.90;;;;;;5056961;28;20479;-51
2022/07/22 11:25:01;;;;;;;4.53;4.13;;;27.10;99.90;;;;;;5056071;28;20887;-43
2022/07/22 11:27:28;;;;;;;3.27;3.07;;;26.70;99.90;;;;;;5056348;28;20428;-49
2022/07/22 11:29:57;;;;;;;4.73;4.20;;;26.40;99.90;;;;;;5056231;28;20504;-47
2022/07/22 11:32:30;;;;;;;4.37;4.00;;;26.20;99.90;;;;;;5056285;28;20448;-43
2022/07/22 11:34:58;;;;;;;4.40;4.10;;;26.20;99.90;;;;;;5055927;28;20397;-51
2022/07/22 11:37:26;;;;;;;4.20;3.80;;;26.30;99.90;;;;;;5055853;28;20460;-42
2022/07/22 11:40:00;;;;;;;4.13;3.80;;;26.50;99.90;;;;;;5056404;28;20460;-53
2022/07/22 11:42:27;;;;;;;4.37;4.00;;;26.70;99.90;;;;;;5055388;28;20528;-46
2022/07/22 11:44:54;;;;;;;4.37;3.97;;;26.90;99.90;;;;;;5055585;28;20475;-44
2022/07/22 11:47:21;;;;;;;4.67;4.27;;;27.10;99.90;;;;;;5056079;28;20527;-45
2022/07/22 11:49:49;;;;;;;4.47;4.07;;;27.10;99.90;;;;;;5055806;28;20513;-43
2022/07/22 11:52:16;;;;;;;5.13;4.70;;;27.00;99.90;;;;;;5055808;28;20472;-45
2022/07/22 11:54:44;;;;;;;4.97;4.53;;;26.90;99.90;;;;;;5056333;28;20455;-49
2022/07/22 11:57:15;;;;;;;4.53;4.13;;;26.60;99.90;;;;;;5056186;28;20508;-49
2022/07/22 11:59:44;;;;;;;4.27;3.87;;;26.50;99.90;;;;;;5056598;28;20426;-47
2022/07/22 12:02:14;;;;;;;4.77;4.37;;;26.30;99.90;;;;;;5056094;28;20492;-48
2022/07/22 12:04:41;;;;;;;4.30;3.67;;;26.20;99.90;;;;;;5056008;28;20492;-48
2022/07/22 12:07:12;;;;;;;4.07;3.60;;;26.40;99.90;;;;;;5056147;28;20456;-41
2022/07/22 12:09:41;;;;;;;4.53;4.13;;;26.50;99.90;;;;;;5055544;28;20523;-49
2022/07/22 12:12:08;;;;;;;3.60;3.30;;;26.70;99.90;;;;;;5055897;28;20454;-52
2022/07/22 12:14:35;;;;;;;4.70;4.30;;;26.80;99.90;;;;;;5055925;28;20480;-46
2022/07/22 12:17:04;;;;;;;4.23;3.93;;;26.70;99.90;;;;;;5056162;28;20457;-44
2022/07/22 12:19:33;;;;;;;3.37;3.07;;;26.50;99.90;;;;;;5055634;28;20500;-47
2022/07/22 12:22:01;;;;;;;4.17;3.77;;;26.40;99.90;;;;;;5056333;28;20472;-50
2022/07/22 12:24:34;;;;;;;3.83;3.43;;;26.20;99.90;;;;;;5055973;28;20480;-49
2022/07/22 12:27:02;;;;;;;3.70;3.40;;;26.00;99.90;;;;;;5055897;28;20847;-48
2022/07/22 12:29:31;;;;;;;4.00;3.37;;;25.80;99.90;;;;;;5055941;28;20475;-58
2022/07/22 12:32:00;;;;;;;3.20;2.90;;;25.80;99.90;;;;;;5055824;28;20468;-38
2022/07/22 12:34:36;;;;;;;3.53;3.23;;;25.70;99.90;;;;;;5055549;28;20447;-41
2022/07/22 12:37:13;;;;;;;5.13;3.27;;;25.70;99.90;;;;;;5055530;28;20479;-42
2022/07/22 12:39:57;;;;;;;3.77;3.47;;;25.50;99.90;;;;;;5055765;28;20510;-47
2022/07/22 12:42:26;;;;;;;4.10;3.67;;;25.30;99.90;;;;;;5055544;28;20420;-47
2022/07/22 12:44:54;;;;;;;2.80;2.60;;;25.20;99.90;;;;;;5055571;28;20464;-50
2022/07/22 12:47:48;;;;;;;3.60;3.20;;;25.30;99.90;;;;;;5055332;28;20548;-51
2022/07/22 12:50:33;;;;;;;3.30;3.00;;;25.40;99.90;;;;;;5055525;28;20462;-48
2022/07/22 12:53:04;;;;;;;3.63;3.00;;;25.60;99.90;;;;;;5055289;28;20431;-49